Pagrindinis puslapis
METAR-TAF:

METAR-TAF

Oro uostai :

Sacramento Executive Airport

Sakramentas, Kalifornija, Jungtinės Amerikos Valstijos

platuma: 38-30-25N, ilguma: 121-29-42W, Aukštis: 6 m

Dabartinis oras

Ataskaita buvo paskelbta 30 minutes, ne 22:53 UTC
Vėjas 4 kt iš Pietryčių
Temperatūra 18°C
Drėgmė 42%
Slėgis 1015 hPa
Matomumas: 16.1 km
Giedras dangus

METAR: KSAC 252253Z 14004KT 10SM CLR 18/05 A2997 RMK AO2 SLP149 T01780050

Laikas: 15:23 (23:23 UTC)

Prognozė

Ataskaita buvo paskelbta 5 valandos ir 6 minutes, ne 18:17 UTC
Prognozė galioja nuo 25 metu 18 UTC su 26 metu 18 UTC
Vėjas 8 kt iš Šiaurės/Šiaurės Vakarų
Matomumas: 10 km
Giedras dangus
Nuo 26 metu 0400 UTC
Vėjas 3 kt nuo kintamojo kryptimis
Matomumas: 8.0 km
Giedras dangus
rūkana
Nuo 26 metu 1200 UTC
Vėjas 2 kt nuo kintamojo kryptimis
Matomumas: 3.2 km
Giedras dangus
rūkana

TAF: KSAC 251817Z 2518/2618 33008KT P6SM SKC FM260400 VRB03KT 5SM BR SKC FM261200 VRB02KT 2SM BR SKC

Orai ataskaitas ir orų prognozės (METAR, TAF).

turimą stotys yra geltonos ir raudonos taškus žemėlapyje.

Perkelti pele per norėdami pamatyti stoties vardą.

Tada spustelėkite, norėdami matyti oro stebėjimo ir prognozės.

Norėdami pakeisti žemėlapį: spustelėkite ant žalios mygtukų su juodo kryžiaus žemyn,; žalią mygtuką su brūkšneliu, jei norite nutolinti; arba žalių rodyklių gretimoms žemėlapius.


METAR-TAF: